Time;durP1;ratioP1;P1;durP2;ratioP2;P2;SDS_P1;SDS_P2;PMS_P1;PMS_P2;Temp;Humidity;BMP_temperature;BMP_pressure;BME280_temperature;BME280_humidity;BME280_pressure;Samples;Min_cycle;Max_cycle;Signal;HPM_P1;HPM_P2
2022/02/05 00:03:10;;;;;;;2.13;2.03;;;4.20;99.90;;;4.51;82.10;98046.16;5166839;28;20227;-70
2022/02/05 00:05:49;;;;;;;2.30;2.20;;;4.10;99.90;;;4.42;84.81;98050.44;5170425;28;20658;-70
2022/02/05 00:08:36;;;;;;;2.67;2.57;;;4.00;99.90;;;4.45;84.96;98063.34;5185706;28;20217;-70
2022/02/05 00:11:36;;;;;;;2.93;2.60;;;3.90;99.90;;;4.40;84.35;98072.19;5192166;28;20646;-67
2022/02/05 00:20:22;;;;;;;2.37;2.27;;;3.90;99.90;;;4.36;85.55;98089.56;5207012;28;20226;-67
2022/02/05 00:40:05;;;;;;;2.57;2.47;;;3.50;99.90;;;4.04;88.02;98121.47;5207953;28;20272;-67
2022/02/05 00:42:41;;;;;;;2.57;2.47;;;3.50;99.90;;;3.99;88.44;98122.69;5210608;28;20231;-68
2022/02/05 00:45:14;;;;;;;2.53;2.43;;;3.40;99.90;;;4.01;88.91;98138.00;5208027;28;20225;-67
2022/02/05 00:47:48;;;;;;;2.87;2.67;;;3.40;99.90;;;4.01;88.70;98141.44;5201521;28;20224;-68
2022/02/05 00:50:25;;;;;;;2.70;2.60;;;3.30;99.90;;;3.93;88.97;98139.88;5208932;28;20228;-68
2022/02/05 00:53:02;;;;;;;2.70;2.60;;;3.30;99.90;;;3.96;89.79;98139.25;5203468;28;20733;-70
2022/02/05 00:55:39;;;;;;;2.13;2.03;;;3.30;99.90;;;3.97;88.37;98149.47;5199582;28;20225;-68
2022/02/05 00:58:14;;;;;;;2.80;2.70;;;3.30;99.90;;;3.88;88.77;98153.75;5205438;28;20227;-69
2022/02/05 01:00:47;;;;;;;2.50;2.30;;;3.30;99.90;;;3.84;89.85;98151.72;5202524;28;20303;-68
2022/02/05 01:03:20;;;;;;;2.97;2.43;;;3.20;99.90;;;3.80;90.65;98160.66;5198892;28;20228;-68
2022/02/05 01:05:53;;;;;;;2.40;2.30;;;3.20;99.90;;;3.82;90.10;98168.38;5210022;28;20225;-67
2022/02/05 01:08:32;;;;;;;2.60;2.40;;;3.20;99.90;;;3.78;89.81;98177.34;5205462;28;20237;-67
2022/02/05 01:11:05;;;;;;;2.50;2.40;;;3.20;99.90;;;3.73;90.70;98180.22;5200856;28;20216;-67
2022/02/05 01:13:40;;;;;;;2.47;2.30;;;3.10;99.90;;;3.66;91.34;98185.47;5198676;28;20233;-67
2022/02/05 01:16:20;;;;;;;2.60;2.50;;;3.00;99.90;;;3.57;89.13;98190.59;5206874;28;20230;-68
2022/02/05 01:18:53;;;;;;;2.43;2.33;;;3.00;99.90;;;3.56;89.02;98184.66;5203041;28;20227;-67
2022/02/05 01:21:36;;;;;;;2.43;2.33;;;3.00;99.90;;;3.54;89.73;98198.78;5205231;28;20228;-67
2022/02/05 01:24:13;;;;;;;2.80;2.60;;;3.00;99.90;;;3.52;90.51;98194.34;5205226;28;20224;-68
2022/02/05 01:26:51;;;;;;;2.60;2.50;;;2.90;99.90;;;3.46;90.10;98199.75;5203362;28;20231;-68
2022/02/05 01:29:35;;;;;;;2.83;2.63;;;2.80;99.90;;;3.41;90.19;98210.22;5201063;28;20226;-67
2022/02/05 01:32:14;;;;;;;2.80;2.70;;;2.80;99.90;;;3.42;90.42;98205.28;5202152;28;20214;-67
2022/02/05 01:34:56;;;;;;;2.67;2.47;;;2.80;99.90;;;3.38;90.24;98208.28;5193477;28;20218;-69
2022/02/05 01:52:06;;;;;;;3.47;3.27;;;2.70;99.90;;;3.22;92.05;98246.41;5170682;28;20263;-71
2022/02/05 01:55:06;;;;;;;3.47;3.27;;;2.60;99.90;;;3.22;92.58;98240.47;5202244;28;20225;-69
2022/02/05 01:57:49;;;;;;;3.03;2.83;;;2.60;99.90;;;3.19;92.35;98242.72;5203528;28;20951;-68
2022/02/05 02:06:14;;;;;;;2.97;2.87;;;2.60;99.90;;;3.16;92.80;98261.00;5211462;28;20239;-70
2022/02/05 02:11:45;;;;;;;2.87;2.77;;;2.60;99.90;;;3.14;93.90;98260.84;5202928;28;20279;-68
2022/02/05 02:23:20;;;;;;;3.30;3.10;;;2.60;99.90;;;3.14;94.55;98276.00;5199043;28;20232;-69
2022/02/05 02:26:01;;;;;;;3.00;2.80;;;2.50;99.90;;;3.14;94.29;98270.97;5209144;28;20231;-68
2022/02/05 02:28:44;;;;;;;3.10;2.90;;;2.50;99.90;;;3.08;94.81;98275.44;5205243;28;20696;-69
2022/02/05 02:31:22;;;;;;;3.20;3.00;;;2.40;99.90;;;3.05;94.16;98271.75;5199337;28;20234;-69
2022/02/05 02:33:56;;;;;;;3.47;3.27;;;2.40;99.90;;;2.99;94.25;98271.19;5209838;28;20723;-68
2022/02/05 02:36:34;;;;;;;3.67;3.37;;;2.30;99.90;;;2.88;93.94;98272.72;5203282;28;20215;-69
2022/02/05 02:39:13;;;;;;;4.13;3.83;;;2.20;99.90;;;2.81;93.89;98271.28;5208567;28;20224;-68
2022/02/05 02:41:50;;;;;;;3.33;2.97;;;2.10;99.90;;;2.75;93.57;98269.78;5194850;28;20233;-69
2022/02/05 02:44:23;;;;;;;2.90;2.73;;;2.10;99.90;;;2.67;93.61;98269.09;5210775;28;20217;-69
2022/02/05 02:46:56;;;;;;;3.73;3.40;;;2.00;99.90;;;2.63;93.90;98265.41;5195757;28;20307;-69
2022/02/05 02:49:43;;;;;;;4.90;3.67;;;2.00;99.90;;;2.56;93.58;98272.25;5197382;28;20218;-68
2022/02/05 02:58:05;;;;;;;3.27;2.97;;;1.80;99.90;;;2.46;94.13;98300.72;5202363;28;20214;-68
2022/02/05 03:00:38;;;;;;;3.30;3.07;;;1.80;99.90;;;2.40;94.25;98295.09;5210005;28;20227;-69
2022/02/05 03:03:11;;;;;;;3.70;3.40;;;1.80;99.90;;;2.40;93.73;98301.03;5205330;28;20218;-69
2022/02/05 03:05:44;;;;;;;3.43;3.20;;;1.80;99.90;;;2.38;94.38;98314.28;5202450;28;20226;-69
2022/02/05 03:08:17;;;;;;;3.80;3.43;;;1.70;99.90;;;2.29;93.95;98316.81;5210105;28;20617;-68
2022/02/05 03:10:52;;;;;;;3.27;3.07;;;1.60;99.90;;;2.19;93.18;98320.06;5203614;28;20236;-69
2022/02/05 03:13:25;;;;;;;2.90;2.80;;;1.50;99.90;;;2.14;93.83;98323.75;5199107;28;20225;-69
2022/02/05 03:15:58;;;;;;;3.57;3.27;;;1.50;99.90;;;2.11;93.84;98320.94;5205863;28;20209;-68
2022/02/05 03:18:44;;;;;;;3.63;3.37;;;1.50;99.90;;;2.05;93.25;98325.41;5203503;28;20880;-68
2022/02/05 03:21:18;;;;;;;4.57;3.50;;;1.40;99.90;;;2.04;94.17;98331.19;5196337;28;20213;-68
2022/02/05 03:23:51;;;;;;;4.20;3.90;;;1.40;99.90;;;2.02;94.88;98322.56;5201542;28;20229;-69
2022/02/05 03:26:25;;;;;;;3.50;3.20;;;1.40;99.90;;;2.00;93.89;98331.63;5202182;28;20231;-69
2022/02/05 03:28:58;;;;;;;3.43;3.23;;;1.30;99.90;;;1.97;93.80;98327.16;5197095;28;20231;-70
2022/02/05 03:31:31;;;;;;;3.27;3.00;;;1.30;99.90;;;1.95;94.03;98336.22;5201370;28;20226;-69
2022/02/05 03:34:06;;;;;;;3.87;3.57;;;1.20;99.90;;;1.97;94.32;98346.44;5203975;28;20723;-68
2022/02/05 03:36:40;;;;;;;3.60;3.30;;;1.30;99.90;;;1.91;94.74;98353.41;5207356;28;20221;-68
2022/02/05 03:39:13;;;;;;;3.57;3.30;;;1.20;99.90;;;1.75;94.61;98348.50;5203123;28;20220;-69
2022/02/05 03:41:48;;;;;;;3.93;3.63;;;1.10;99.90;;;1.76;94.79;98343.59;5212135;28;20228;-68
2022/02/05 03:44:21;;;;;;;3.73;3.40;;;1.20;99.90;;;1.73;95.04;98355.91;5210244;28;20224;-69
2022/02/05 03:46:55;;;;;;;4.63;3.70;;;1.10;99.90;;;1.77;95.95;98358.00;5208967;28;20253;-69
2022/02/05 03:49:28;;;;;;;4.80;4.40;;;1.10;99.90;;;1.74;96.01;98350.13;5205697;28;20218;-69
2022/02/05 03:52:01;;;;;;;3.80;3.50;;;1.10;99.90;;;1.74;95.60;98357.66;5199070;28;20601;-67
2022/02/05 03:54:35;;;;;;;3.27;2.97;;;1.00;99.90;;;1.69;94.60;98374.00;5200780;28;20219;-69
2022/02/05 03:57:09;;;;;;;3.40;3.20;;;0.90;99.90;;;1.55;93.79;98380.16;5201893;28;20217;-69
2022/02/05 03:59:43;;;;;;;2.70;2.57;;;0.80;99.90;;;1.48;94.38;98382.78;5205467;28;20588;-69
2022/02/05 04:02:16;;;;;;;3.13;2.80;;;0.80;99.90;;;1.49;95.10;98374.53;5206365;28;20316;-68
2022/02/05 04:04:50;;;;;;;3.03;2.83;;;0.80;99.90;;;1.45;95.54;98376.56;5202837;28;20242;-68
2022/02/05 04:07:24;;;;;;;2.80;2.60;;;0.80;99.90;;;1.46;95.27;98385.88;5202856;28;20225;-69
2022/02/05 04:10:00;;;;;;;3.40;3.10;;;0.80;99.90;;;1.39;96.05;98391.94;5200130;28;20230;-68
2022/02/05 04:18:16;;;;;;;3.03;2.83;;;0.70;99.90;;;1.34;96.02;98406.63;5198500;28;20226;-69
2022/02/05 04:20:49;;;;;;;3.53;3.10;;;0.70;99.90;;;1.34;95.23;98410.72;5206312;28;20221;-69
2022/02/05 04:23:22;;;;;;;3.67;3.37;;;0.70;99.90;;;1.34;95.49;98411.66;5209798;28;20233;-66
2022/02/05 04:25:55;;;;;;;3.20;2.90;;;0.70;99.90;;;1.40;96.01;98412.97;5199676;28;20308;-69
2022/02/05 04:28:30;;;;;;;3.20;3.00;;;0.80;99.90;;;1.37;95.93;98413.56;5203125;28;20221;-69
2022/02/05 04:31:03;;;;;;;3.67;3.37;;;0.80;99.90;;;1.44;95.97;98415.09;5209942;28;20236;-66
2022/02/05 04:33:36;;;;;;;3.47;3.27;;;0.80;99.90;;;1.46;96.20;98413.59;5209196;28;20248;-67
2022/02/05 04:36:10;;;;;;;3.77;3.43;;;0.80;99.90;;;1.53;96.15;98423.56;5206895;28;20226;-67
2022/02/05 04:38:46;;;;;;;3.20;3.00;;;0.80;99.90;;;1.56;96.16;98427.28;5205250;28;20214;-67
2022/02/05 04:41:23;;;;;;;3.60;3.30;;;0.90;99.90;;;1.50;96.60;98426.66;5200926;28;20240;-67
2022/02/05 04:44:11;;;;;;;3.73;3.53;;;0.90;99.90;;;1.57;96.61;98429.09;5206592;28;20217;-69
2022/02/05 04:50:16;;;;;;;3.60;3.30;;;1.00;99.90;;;1.75;96.71;98439.22;5201412;28;20589;-67
2022/02/05 04:53:18;;;;;;;5.03;3.83;;;1.10;99.90;;;1.79;97.20;98432.09;5202954;28;20241;-67
2022/02/05 04:59:06;;;;;;;4.10;3.80;;;1.30;99.90;;;1.92;97.76;98440.91;5196029;28;20222;-67
2022/02/05 05:02:03;;;;;;;3.20;2.90;;;1.40;99.90;;;2.00;96.91;98443.44;5197800;28;20215;-67
2022/02/05 05:04:41;;;;;;;3.20;3.03;;;1.40;99.90;;;2.08;96.33;98453.38;5198410;28;20222;-67
2022/02/05 05:10:19;;;;;;;3.70;3.40;;;1.50;99.90;;;2.09;96.58;98453.53;5207719;28;20233;-67
2022/02/05 05:12:59;;;;;;;3.67;3.47;;;1.40;99.90;;;2.06;96.42;98453.25;5204698;28;20241;-69
2022/02/05 05:19:12;;;;;;;3.70;3.40;;;1.40;99.90;;;2.10;96.88;98460.34;5200840;28;20233;-67
2022/02/05 05:21:25;;;;;;;3.97;3.67;;;1.50;99.90;;;2.19;96.30;98447.75;5205162;28;20768;-69
2022/02/05 05:23:58;;;;;;;4.00;3.60;;;1.60;99.90;;;2.22;96.64;98451.47;5203588;28;20217;-66
2022/02/05 05:26:31;;;;;;;6.63;4.27;;;1.60;99.90;;;2.28;95.79;98467.94;5198581;28;20218;-66
2022/02/05 05:29:05;;;;;;;4.20;3.90;;;1.70;99.90;;;2.32;96.18;98464.97;5204890;28;20262;-69
2022/02/05 05:31:38;;;;;;;4.03;3.63;;;1.70;99.90;;;2.36;96.09;98474.66;5213867;22;20238;-66
2022/02/05 05:34:12;;;;;;;5.30;3.63;;;1.70;99.90;;;2.40;95.41;98471.66;5181033;28;20223;-66
2022/02/05 05:36:45;;;;;;;4.77;4.37;;;1.80;99.90;;;2.38;95.73;98474.06;5180486;28;20224;-66
2022/02/05 05:39:18;;;;;;;5.50;4.00;;;1.80;99.90;;;2.44;95.97;98468.72;5182584;28;20222;-66
2022/02/05 05:41:51;;;;;;;3.87;3.57;;;1.80;99.90;;;2.46;94.92;98468.13;5182555;28;20221;-65
2022/02/05 05:47:19;;;;;;;10.27;7.03;;;1.90;99.90;;;2.54;95.34;98475.56;5161928;28;20222;-66
2022/02/05 05:50:03;;;;;;;7.43;5.77;;;1.90;99.90;;;2.54;94.32;98476.44;5183057;28;20234;-66
2022/02/05 05:52:37;;;;;;;4.90;4.40;;;1.90;99.90;;;2.60;94.57;98473.63;5179497;28;20234;-66
2022/02/05 05:55:10;;;;;;;5.30;4.47;;;1.90;99.90;;;2.62;94.30;98480.59;5179852;28;20220;-66
2022/02/05 05:57:43;;;;;;;5.10;4.60;;;1.80;99.90;;;2.63;94.36;98479.88;5179148;28;20687;-67
2022/02/05 06:00:17;;;;;;;5.07;4.20;;;1.80;99.90;;;2.67;95.17;98479.41;5179679;28;20229;-65
2022/02/05 06:02:50;;;;;;;4.77;4.37;;;1.90;99.90;;;2.72;93.92;98484.94;5182952;28;20226;-66
2022/02/05 06:05:24;;;;;;;3.70;3.40;;;1.90;99.90;;;2.80;94.02;98490.69;5174816;28;20218;-66
2022/02/05 06:07:57;;;;;;;3.70;3.40;;;1.90;99.90;;;2.81;94.21;98487.44;5177931;28;20231;-66
2022/02/05 06:10:30;;;;;;;4.43;4.00;;;1.90;99.90;;;2.82;93.60;98496.78;5179957;28;20234;-65
2022/02/05 06:13:04;;;;;;;6.80;5.67;;;1.90;99.90;;;2.75;94.17;98495.31;5172730;28;20224;-66
2022/02/05 06:15:38;;;;;;;5.03;4.30;;;1.90;99.90;;;2.74;93.97;98485.94;5178327;28;20240;-65
2022/02/05 06:18:11;;;;;;;8.47;6.57;;;1.90;99.90;;;2.71;93.88;98500.78;5179867;28;20222;-65
2022/02/05 06:20:46;;;;;;;6.60;5.50;;;1.90;99.90;;;2.71;94.75;98496.63;5181010;28;20229;-66
2022/02/05 06:23:19;;;;;;;6.33;4.93;;;1.90;99.90;;;2.66;94.47;98500.38;5173594;28;20222;-64
2022/02/05 06:25:52;;;;;;;4.77;3.93;;;1.90;99.90;;;2.63;94.54;98500.06;5172136;28;20223;-65
2022/02/05 06:28:25;;;;;;;4.80;4.50;;;1.90;99.90;;;2.65;94.82;98502.72;5178202;28;20222;-65
2022/02/05 06:30:58;;;;;;;5.13;4.63;;;1.90;99.90;;;2.65;94.73;98506.13;5177738;28;20339;-64
2022/02/05 06:33:31;;;;;;;4.43;3.87;;;1.90;99.90;;;2.66;95.40;98502.88;5180904;28;20222;-66
2022/02/05 06:36:06;;;;;;;4.50;4.10;;;2.00;99.90;;;2.65;94.79;98506.13;5178487;28;20309;-65
2022/02/05 06:38:39;;;;;;;3.73;3.43;;;2.00;99.90;;;2.69;95.74;98504.81;5174951;28;20218;-66
2022/02/05 06:41:12;;;;;;;3.90;3.70;;;2.00;99.90;;;2.70;95.14;98511.63;5179323;28;20237;-65
2022/02/05 06:43:45;;;;;;;4.30;4.00;;;2.00;99.90;;;2.71;95.14;98514.28;5182729;28;20226;-66
2022/02/05 06:46:18;;;;;;;3.83;3.57;;;2.00;99.90;;;2.73;95.16;98521.16;5179076;28;20276;-65
2022/02/05 06:48:51;;;;;;;4.40;4.10;;;2.00;99.90;;;2.71;94.54;98521.88;5180300;28;20640;-65
2022/02/05 06:51:26;;;;;;;5.00;4.57;;;2.00;99.90;;;2.76;93.94;98521.44;5179785;28;20218;-65
2022/02/05 06:53:59;;;;;;;4.90;4.50;;;2.00;99.90;;;2.72;93.81;98522.78;5183458;28;20222;-65
2022/02/05 06:56:32;;;;;;;5.00;4.60;;;2.00;99.90;;;2.78;94.44;98537.63;5176262;28;20225;-66
2022/02/05 06:59:05;;;;;;;4.30;3.90;;;2.00;99.90;;;2.68;94.49;98540.88;5176640;28;20219;-65
2022/02/05 07:01:38;;;;;;;4.70;4.30;;;2.00;99.90;;;2.75;94.43;98543.28;5178187;28;20533;-65
2022/02/05 07:04:11;;;;;;;4.53;4.23;;;1.90;99.90;;;2.71;94.15;98542.06;5181788;28;20224;-65
2022/02/05 07:06:48;;;;;;;4.57;4.20;;;1.90;99.90;;;2.68;94.66;98550.97;5182148;28;20224;-66
2022/02/05 07:09:23;;;;;;;4.97;4.57;;;1.90;99.90;;;2.66;94.08;98562.53;5180553;28;20245;-65
2022/02/05 07:11:59;;;;;;;4.63;4.23;;;1.90;99.90;;;2.67;95.25;98575.31;5180744;28;20227;-64
2022/02/05 07:14:36;;;;;;;6.27;4.97;;;1.90;99.90;;;2.71;94.19;98569.81;5182733;28;20222;-65
2022/02/05 07:17:16;;;;;;;4.60;4.27;;;2.00;99.90;;;2.71;94.68;98579.91;5186355;28;20842;-64
2022/02/05 07:20:01;;;;;;;5.33;4.47;;;2.00;99.90;;;2.81;94.92;98578.31;5178850;28;20218;-66
2022/02/05 07:22:48;;;;;;;5.90;4.67;;;2.10;99.90;;;2.85;94.99;98575.34;5176834;28;20233;-65
2022/02/05 07:31:13;;;;;;;4.77;4.37;;;2.20;99.90;;;2.98;94.93;98570.75;5179467;28;20238;-65
2022/02/05 07:33:47;;;;;;;6.20;4.90;;;2.30;99.90;;;3.14;94.18;98585.75;5179527;28;20227;-64
2022/02/05 07:36:20;;;;;;;5.33;4.93;;;2.40;99.90;;;3.24;93.23;98578.34;5181289;28;20216;-64
2022/02/05 07:38:55;;;;;;;4.83;4.43;;;2.40;99.90;;;3.34;91.74;98580.09;5186593;28;20726;-64
2022/02/05 07:41:28;;;;;;;5.43;4.47;;;2.50;99.90;;;3.58;90.06;98576.53;5191845;28;20222;-65
2022/02/05 07:44:01;;;;;;;5.37;4.87;;;2.70;99.90;;;3.87;89.26;98581.81;5176008;28;20215;-65
2022/02/05 07:46:34;;;;;;;5.23;4.63;;;3.10;99.90;;;4.16;87.18;98584.53;5179864;28;20705;-65
2022/02/05 07:49:08;;;;;;;4.43;4.03;;;3.40;99.90;;;4.43;85.56;98588.72;5172800;28;20238;-64
2022/02/05 07:51:41;;;;;;;7.63;4.27;;;3.60;99.90;;;4.67;84.39;98589.22;5184030;28;20229;-65
2022/02/05 07:54:16;;;;;;;4.67;4.27;;;3.90;99.90;;;5.00;82.18;98593.00;5193448;28;20228;-65
2022/02/05 07:56:50;;;;;;;4.17;3.73;;;4.10;99.90;;;5.19;80.50;98593.91;5182968;28;20224;-66
2022/02/05 07:59:23;;;;;;;4.20;3.83;;;4.40;99.90;;;5.41;80.20;98589.13;5184233;28;20228;-65
2022/02/05 08:01:56;;;;;;;5.00;4.60;;;4.70;99.90;;;5.51;77.59;98588.28;5177209;28;20607;-65
2022/02/05 08:04:29;;;;;;;5.87;4.53;;;4.80;99.90;;;5.59;77.69;98592.38;5180848;28;20253;-65
2022/02/05 08:07:04;;;;;;;5.47;4.83;;;4.80;99.90;;;5.60;77.53;98594.16;5176503;28;20218;-65
2022/02/05 08:09:52;;;;;;;6.47;4.50;;;4.70;99.90;;;5.60;76.49;98596.69;5177615;28;20369;-65
2022/02/05 08:12:26;;;;;;;4.60;4.20;;;4.70;99.90;;;5.64;76.30;98597.09;5178164;28;20230;-66
2022/02/05 08:15:00;;;;;;;4.63;3.90;;;4.70;99.90;;;5.67;75.91;98596.50;5179422;28;20233;-65
2022/02/05 08:17:36;;;;;;;5.13;4.73;;;4.80;99.90;;;5.60;74.35;98595.03;5183788;28;20269;-65
2022/02/05 08:20:10;;;;;;;6.47;4.87;;;4.80;99.90;;;5.53;75.60;98596.91;5179101;28;20222;-65
2022/02/05 08:22:44;;;;;;;5.60;4.53;;;4.70;99.90;;;5.69;75.76;98602.56;5183982;28;20213;-65
2022/02/05 08:25:18;;;;;;;4.67;4.03;;;4.70;99.90;;;5.78;73.95;98597.41;5184211;28;20317;-64
2022/02/05 08:27:51;;;;;;;5.50;4.33;;;4.70;99.90;;;5.66;73.88;98599.75;5183857;28;20232;-64
2022/02/05 08:30:27;;;;;;;4.60;4.27;;;4.60;99.90;;;5.75;74.77;98609.81;5174192;28;20296;-64
2022/02/05 08:33:04;;;;;;;6.10;4.13;;;4.80;99.90;;;5.75;74.01;98610.75;5180772;28;20230;-64
2022/02/05 08:35:37;;;;;;;4.40;4.00;;;4.70;99.90;;;5.80;72.94;98613.66;5177286;28;20249;-64
2022/02/05 08:38:10;;;;;;;4.50;4.10;;;4.80;99.90;;;5.76;73.73;98609.09;5174424;28;20226;-64
2022/02/05 08:40:44;;;;;;;4.87;4.27;;;4.80;99.90;;;5.76;73.43;98609.97;5182415;28;20253;-64
2022/02/05 08:43:17;;;;;;;4.37;3.70;;;4.90;99.90;;;6.04;73.08;98612.41;5175170;28;20665;-64
2022/02/05 08:45:50;;;;;;;6.43;4.00;;;5.00;99.90;;;5.97;71.94;98617.69;5173687;28;20226;-64
2022/02/05 08:48:23;;;;;;;4.23;3.70;;;4.90;99.90;;;5.75;72.48;98623.41;5180382;28;20306;-64
2022/02/05 08:50:57;;;;;;;3.80;3.50;;;4.70;99.90;;;5.59;73.21;98622.81;5176593;28;20353;-64
2022/02/05 08:53:30;;;;;;;5.77;3.80;;;4.60;99.90;;;5.53;73.58;98634.97;5187184;28;20296;-64
2022/02/05 08:56:05;;;;;;;5.20;4.00;;;4.50;99.90;;;5.56;73.74;98633.56;5183363;28;20635;-64
2022/02/05 08:58:38;;;;;;;4.03;3.57;;;4.50;99.90;;;5.49;74.10;98635.41;5181184;28;20214;-64
2022/02/05 09:01:16;;;;;;;3.67;3.33;;;4.50;99.90;;;5.49;73.18;98637.94;5183073;28;20276;-64
2022/02/05 09:03:59;;;;;;;5.37;4.03;;;4.40;99.90;;;5.40;73.45;98636.38;5182473;28;20218;-64
2022/02/05 09:06:38;;;;;;;6.17;4.40;;;4.40;99.90;;;5.39;73.93;98638.78;5183719;28;20609;-64
2022/02/05 09:09:17;;;;;;;4.47;4.07;;;4.40;99.90;;;5.56;72.92;98632.69;5182668;28;20233;-64
2022/02/05 09:11:56;;;;;;;4.00;3.70;;;4.40;99.90;;;5.46;72.37;98635.16;5181232;28;20752;-63
2022/02/05 09:14:33;;;;;;;4.67;4.27;;;4.40;99.90;;;5.40;71.72;98635.50;5179689;28;20230;-64
2022/02/05 09:17:07;;;;;;;3.87;3.57;;;4.60;99.90;;;5.45;72.55;98638.44;5183660;28;20225;-64
2022/02/05 09:19:40;;;;;;;5.20;3.73;;;4.60;99.90;;;5.27;73.33;98630.97;5182061;28;20233;-64
2022/02/05 09:22:13;;;;;;;4.93;3.70;;;4.50;99.90;;;5.30;73.19;98633.78;5184506;28;20214;-64
2022/02/05 09:24:46;;;;;;;7.47;4.53;;;4.50;99.90;;;5.27;73.49;98641.13;5192220;28;20241;-65
2022/02/05 09:27:21;;;;;;;4.27;3.70;;;4.40;99.90;;;5.32;73.54;98641.50;5183783;28;20232;-63
2022/02/05 09:30:01;;;;;;;3.67;3.27;;;4.50;99.90;;;5.41;74.02;98633.09;5180497;28;20234;-63
2022/02/05 09:32:34;;;;;;;4.83;3.60;;;4.70;99.90;;;5.50;74.35;98639.75;5182111;28;20234;-64
2022/02/05 09:35:08;;;;;;;6.77;4.37;;;4.80;99.90;;;5.82;72.96;98638.41;5186045;28;20631;-64
2022/02/05 09:37:41;;;;;;;3.80;3.50;;;5.10;99.90;;;5.94;73.32;98633.53;5192403;28;20223;-63
2022/02/05 09:40:14;;;;;;;3.83;3.27;;;5.30;99.90;;;6.20;70.96;98627.31;5199570;28;20218;-64
2022/02/05 09:42:50;;;;;;;3.60;3.20;;;5.40;99.90;;;6.25;70.34;98632.03;5187163;28;20788;-63
2022/02/05 09:45:23;;;;;;;4.10;3.10;;;5.40;99.90;;;6.23;70.93;98638.59;5179728;28;20256;-64
2022/02/05 09:47:57;;;;;;;3.83;3.53;;;5.40;99.90;;;6.18;70.06;98629.72;5180847;28;20230;-63
2022/02/05 09:50:31;;;;;;;3.77;3.43;;;5.40;99.90;;;6.18;70.47;98633.88;5178888;28;20231;-65
2022/02/05 09:53:14;;;;;;;5.90;3.87;;;5.30;99.90;;;6.22;71.04;98629.22;5178893;28;20226;-64
2022/02/05 09:55:51;;;;;;;5.37;3.90;;;5.40;99.90;;;6.23;70.86;98628.44;5174577;28;20382;-64
2022/02/05 09:58:25;;;;;;;4.70;3.93;;;5.50;99.90;;;6.20;70.11;98630.72;5179792;28;20221;-63
2022/02/05 10:01:02;;;;;;;5.27;3.63;;;5.50;99.90;;;6.30;69.76;98634.97;5173164;28;20587;-63
2022/02/05 10:03:35;;;;;;;5.20;3.43;;;5.60;99.90;;;6.50;69.08;98639.22;5177302;28;20253;-64
2022/02/05 10:06:12;;;;;;;4.03;3.70;;;5.70;99.90;;;6.52;69.66;98647.81;5179702;28;20633;-63
2022/02/05 10:08:48;;;;;;;5.10;3.77;;;5.70;99.90;;;6.51;70.17;98646.06;5179316;28;20591;-64
2022/02/05 10:11:21;;;;;;;6.33;3.87;;;5.70;99.90;;;6.73;69.42;98644.59;5181864;28;20608;-63
2022/02/05 10:13:56;;;;;;;4.53;3.87;;;5.80;99.90;;;6.89;68.14;98633.16;5177883;28;20234;-63
2022/02/05 10:16:30;;;;;;;5.73;3.90;;;6.10;99.90;;;6.82;68.27;98643.59;5184292;28;20602;-63
2022/02/05 10:19:03;;;;;;;5.77;3.27;;;6.10;99.90;;;6.86;68.03;98650.69;5178613;28;20229;-63
2022/02/05 10:21:37;;;;;;;4.50;3.60;;;6.10;99.90;;;6.92;68.48;98656.28;5176445;28;20231;-64
2022/02/05 10:24:12;;;;;;;3.43;3.17;;;6.00;99.90;;;6.92;66.76;98646.13;5180845;28;20686;-63
2022/02/05 10:26:48;;;;;;;4.63;4.23;;;6.00;99.90;;;6.96;66.68;98654.13;5178443;28;20226;-63
2022/02/05 10:29:22;;;;;;;7.27;3.57;;;5.90;99.90;;;6.89;67.91;98654.38;5180213;28;20222;-63
2022/02/05 10:32:03;;;;;;;4.50;3.60;;;5.90;99.90;;;6.91;66.93;98644.34;5184371;28;20233;-63
2022/02/05 10:34:54;;;;;;;4.30;3.90;;;6.00;99.90;;;6.92;67.47;98646.13;5178724;28;20226;-63
2022/02/05 10:37:34;;;;;;;4.87;4.17;;;6.00;99.90;;;7.06;66.59;98645.63;5176661;28;20230;-63
2022/02/05 10:40:12;;;;;;;5.23;3.67;;;6.20;99.90;;;7.02;66.34;98648.69;5178023;28;20219;-63
2022/02/05 10:43:01;;;;;;;5.60;4.00;;;6.10;99.90;;;7.09;66.48;98640.78;5184566;28;20697;-63
2022/02/05 10:45:46;;;;;;;5.53;3.53;;;6.10;99.90;;;7.15;66.32;98646.41;5171727;28;20661;-63
2022/02/05 10:48:21;;;;;;;4.03;3.63;;;6.10;99.90;;;7.28;65.01;98645.75;5174592;28;20226;-64
2022/02/05 10:50:59;;;;;;;5.93;3.90;;;6.30;99.90;;;7.18;67.17;98651.75;5182287;28;20245;-63
2022/02/05 10:53:36;;;;;;;4.43;3.50;;;6.20;99.90;;;7.29;66.00;98654.25;5187103;28;20222;-63
2022/02/05 10:56:14;;;;;;;4.63;3.43;;;6.30;99.90;;;7.25;67.04;98654.78;5175868;28;20228;-63
2022/02/05 10:59:14;;;;;;;5.73;3.20;;;6.30;99.90;;;7.23;67.28;98647.00;5189207;28;20308;-63
2022/02/05 11:07:41;;;;;;;5.10;3.57;;;6.30;99.90;;;7.44;65.26;98655.53;5179983;28;20222;-63
2022/02/05 11:13:16;;;;;;;6.37;3.73;;;6.60;99.90;;;7.44;64.43;98656.41;5178005;28;20260;-63
2022/02/05 11:18:48;;;;;;;3.47;3.10;;;6.60;99.90;;;7.71;63.15;98648.38;5183098;28;20246;-63
2022/02/05 11:21:22;;;;;;;4.93;3.17;;;6.70;99.90;;;7.70;63.09;98646.56;5181488;28;20222;-63
2022/02/05 11:24:02;;;;;;;3.60;3.30;;;6.60;99.90;;;7.70;62.60;98644.00;5181922;28;20237;-63
2022/02/05 11:26:35;;;;;;;5.87;3.43;;;6.80;99.90;;;7.77;62.98;98647.19;5185438;28;20227;-63
2022/02/05 11:29:26;;;;;;;4.13;2.97;;;7.00;99.90;;;7.82;62.32;98645.03;5182934;28;20223;-64
2022/02/05 11:32:23;;;;;;;3.60;2.57;;;7.10;99.90;;;7.94;62.20;98643.47;5184715;28;20222;-63
2022/02/05 11:35:18;;;;;;;4.33;3.00;;;7.10;99.90;;;7.93;61.41;98628.97;5181602;28;20305;-63
2022/02/05 11:37:54;;;;;;;3.70;2.93;;;7.20;99.90;;;7.89;60.73;98632.00;5183247;28;20233;-63
2022/02/05 11:40:49;;;;;;;4.60;3.53;;;7.10;99.90;;;7.81;60.96;98628.88;5174567;28;20404;-63
2022/02/05 11:43:25;;;;;;;2.87;2.57;;;7.00;99.90;;;7.76;61.72;98630.16;5177086;28;20219;-63
2022/02/05 11:46:13;;;;;;;3.30;3.00;;;6.90;99.90;;;7.81;61.74;98618.69;5174773;28;20592;-63
2022/02/05 11:48:55;;;;;;;2.97;2.67;;;7.00;99.90;;;7.81;60.80;98623.78;5171812;28;20219;-63
2022/02/05 11:51:31;;;;;;;3.83;2.70;;;7.10;99.90;;;7.83;61.24;98613.72;5177448;28;20226;-63
2022/02/05 11:54:16;;;;;;;4.20;2.90;;;7.20;99.90;;;8.12;61.76;98608.38;5177489;28;20710;-64
2022/02/05 11:56:55;;;;;;;3.70;3.40;;;7.40;99.90;;;8.21;60.07;98616.75;5185024;28;20213;-63
2022/02/05 11:59:32;;;;;;;4.20;3.10;;;7.50;99.90;;;8.33;60.96;98614.28;5183337;28;20229;-64
2022/02/05 12:02:16;;;;;;;4.80;2.70;;;7.70;99.90;;;8.60;60.26;98596.81;5183499;28;20222;-64
2022/02/05 12:05:12;;;;;;;3.67;2.50;;;7.90;99.90;;;8.75;58.51;98598.84;5184388;28;20733;-64
2022/02/05 12:08:02;;;;;;;3.47;3.10;;;7.90;99.90;;;8.69;58.31;98602.59;5177444;28;20218;-64
2022/02/05 12:10:37;;;;;;;3.10;2.57;;;7.90;99.90;;;8.67;59.01;98593.94;5175005;28;20596;-64
2022/02/05 12:13:15;;;;;;;5.47;3.33;;;7.80;99.90;;;8.60;59.29;98596.81;5174910;28;20229;-65
2022/02/05 12:16:11;;;;;;;5.03;2.70;;;7.60;99.90;;;8.48;58.94;98600.19;5185410;28;20230;-66
2022/02/05 12:19:14;;;;;;;6.57;2.67;;;7.40;99.90;;;8.43;58.90;98598.06;5182030;28;20226;-65
2022/02/05 12:22:03;;;;;;;3.87;3.13;;;7.40;99.90;;;8.40;59.34;98601.25;5176030;28;20241;-65
2022/02/05 12:25:14;;;;;;;3.63;2.53;;;7.30;99.90;;;8.32;58.87;98602.28;5179546;28;20737;-65
2022/02/05 12:27:47;;;;;;;4.77;2.97;;;7.30;99.90;;;8.25;59.40;98597.50;5177030;28;20230;-65
2022/02/05 12:30:45;;;;;;;4.67;2.47;;;7.30;99.90;;;8.26;59.25;98589.09;5178569;28;20226;-64
2022/02/05 12:33:25;;;;;;;5.07;3.20;;;7.20;99.90;;;8.28;58.39;98582.47;5177161;28;20222;-65
2022/02/05 12:35:58;;;;;;;4.33;3.07;;;7.10;99.90;;;8.12;58.96;98586.34;5180770;28;20242;-64
2022/02/05 12:38:39;;;;;;;6.20;3.10;;;7.00;99.90;;;7.94;59.58;98579.81;5194818;22;20238;-67
2022/02/05 12:41:14;;;;;;;3.60;3.00;;;6.90;99.90;;;8.03;58.96;98589.84;5175417;28;20237;-68
2022/02/05 12:43:51;;;;;;;3.00;2.70;;;6.80;99.90;;;7.91;59.64;98582.13;5183015;28;20407;-68
2022/02/05 12:46:28;;;;;;;4.90;2.63;;;6.80;99.90;;;7.90;59.54;98577.81;5186511;28;20222;-68
2022/02/05 12:49:05;;;;;;;3.27;2.30;;;6.80;99.90;;;7.78;60.49;98587.00;5181522;28;20261;-69
2022/02/05 12:51:42;;;;;;;3.30;2.80;;;6.80;99.90;;;7.82;60.42;98577.19;5184228;28;20249;-67
2022/02/05 12:54:21;;;;;;;3.40;2.70;;;6.80;99.90;;;7.83;60.19;98571.31;5176861;28;20219;-68
2022/02/05 12:56:58;;;;;;;3.67;2.67;;;6.90;99.90;;;7.93;60.03;98567.88;5178168;28;20237;-66